createdAt,value
2022-12-22T00:01:59.502Z,64.03
2022-12-22T00:04:45.127Z,63.42
2022-12-22T00:07:30.455Z,63.22
2022-12-22T00:10:15.764Z,66.03
2022-12-22T00:13:01.129Z,61.17
2022-12-22T00:15:46.801Z,62.55
2022-12-22T00:18:33.721Z,61.35
2022-12-22T00:21:19.240Z,61.42
2022-12-22T00:24:04.857Z,60.78
2022-12-22T00:26:51.076Z,59.72
2022-12-22T00:29:36.678Z,59.22
2022-12-22T00:32:22.391Z,59.83
2022-12-22T00:35:09.232Z,56.45
2022-12-22T00:37:55.677Z,57.92
2022-12-22T00:40:41.660Z,57.85
2022-12-22T00:43:27.348Z,56.42
2022-12-22T00:46:12.716Z,56.45
2022-12-22T00:48:58.362Z,58.22
2022-12-22T00:51:45.252Z,53.35
2022-12-22T00:54:31.397Z,53.13
2022-12-22T00:57:17.179Z,54.63
2022-12-22T01:00:02.990Z,53.58
2022-12-22T01:02:48.466Z,54.45
2022-12-22T01:05:34.408Z,51.28
2022-12-22T01:08:21.375Z,49.28
2022-12-22T01:11:06.714Z,51.92
2022-12-22T01:13:52.036Z,51.53
2022-12-22T01:16:37.570Z,50.88
2022-12-22T01:19:22.894Z,48.97
2022-12-22T01:22:08.291Z,51.80
2022-12-22T01:24:55.294Z,49.20
2022-12-22T01:27:41.028Z,48.78
2022-12-22T01:30:28.332Z,47.08
2022-12-22T01:33:13.913Z,48.70
2022-12-22T01:35:59.263Z,47.40
2022-12-22T01:38:44.792Z,49.45
2022-12-22T01:41:34.845Z,46.50
2022-12-22T01:44:20.271Z,47.85
2022-12-22T01:47:06.130Z,48.90
2022-12-22T01:49:53.857Z,48.08
2022-12-22T01:52:41.759Z,46.17
2022-12-22T01:55:28.943Z,47.72
2022-12-22T01:58:15.749Z,44.50
2022-12-22T02:01:01.457Z,44.97
2022-12-22T02:03:46.772Z,44.20
2022-12-22T02:06:35.590Z,45.53
2022-12-22T02:09:36.089Z,44.13
2022-12-22T02:12:23.973Z,43.13
2022-12-22T02:15:15.609Z,41.75
2022-12-22T02:18:04.039Z,40.72
2022-12-22T02:20:58.983Z,45.22
2022-12-22T02:23:58.749Z,42.83
2022-12-22T02:26:46.902Z,42.28
2022-12-22T02:29:32.797Z,41.30
2022-12-22T02:32:18.089Z,41.75
2022-12-22T02:35:03.391Z,40.88
2022-12-22T02:37:55.054Z,39.90
2022-12-22T02:40:44.511Z,39.92
2022-12-22T02:43:34.003Z,40.10
2022-12-22T02:46:20.698Z,41.05
2022-12-22T02:49:08.817Z,39.00
2022-12-22T02:51:55.086Z,40.30
2022-12-22T02:54:40.271Z,39.42
2022-12-22T02:57:25.748Z,39.55
2022-12-22T03:00:12.812Z,39.13
2022-12-22T03:02:58.471Z,41.28
2022-12-22T03:05:44.236Z,39.83
2022-12-22T03:08:29.551Z,40.58
2022-12-22T03:11:15.100Z,40.28
2022-12-22T03:14:00.433Z,38.15
2022-12-22T03:16:47.803Z,38.30
2022-12-22T03:19:33.019Z,37.35
2022-12-22T03:22:18.564Z,37.13
2022-12-22T03:25:04.010Z,36.78
2022-12-22T03:27:32.279Z,35.83
2022-12-22T03:30:00.421Z,36.67
2022-12-22T03:32:29.944Z,35.72
2022-12-22T03:34:58.098Z,36.70
2022-12-22T03:37:26.213Z,34.40
2022-12-22T03:39:54.405Z,35.65
2022-12-22T03:42:39.691Z,35.63
2022-12-22T03:45:27.568Z,35.78
2022-12-22T03:47:57.089Z,35.10
2022-12-22T03:50:25.200Z,33.90
2022-12-22T03:52:53.275Z,33.75
2022-12-22T03:55:21.456Z,33.60
2022-12-22T03:57:49.522Z,36.40
2022-12-22T04:00:18.144Z,34.42
2022-12-22T04:02:46.404Z,31.42
2022-12-22T04:05:16.178Z,34.65
2022-12-22T04:07:44.359Z,33.17
2022-12-22T04:10:29.707Z,31.75
2022-12-22T04:12:57.914Z,31.35
2022-12-22T04:15:26.813Z,32.47
2022-12-22T04:17:54.988Z,32.45
2022-12-22T04:20:26.840Z,32.05
2022-12-22T04:22:55.188Z,32.38
2022-12-22T04:25:23.250Z,31.83
2022-12-22T04:27:51.385Z,31.67
2022-12-22T04:30:19.512Z,32.15
2022-12-22T04:32:47.662Z,30.98
2022-12-22T04:35:15.715Z,30.67
2022-12-22T04:37:45.198Z,29.55
2022-12-22T04:40:13.551Z,29.88
2022-12-22T04:42:41.654Z,31.65
2022-12-22T04:45:10.628Z,31.08
2022-12-22T04:47:38.769Z,31.35
2022-12-22T04:50:08.043Z,29.05
2022-12-22T04:52:36.141Z,29.58
2022-12-22T04:55:06.612Z,32.13
2022-12-22T04:57:40.282Z,29.40
2022-12-22T05:00:10.244Z,28.60
2022-12-22T05:02:38.598Z,30.08
2022-12-22T05:05:07.692Z,29.83
2022-12-22T05:07:35.848Z,28.10
2022-12-22T05:10:05.475Z,27.17
2022-12-22T05:12:51.063Z,28.35
2022-12-22T05:15:19.253Z,28.55
2022-12-22T05:17:47.330Z,28.35
2022-12-22T05:20:15.547Z,28.27
2022-12-22T05:22:43.614Z,28.20
2022-12-22T05:25:13.269Z,27.75
2022-12-22T05:27:41.384Z,28.13
2022-12-22T05:30:10.683Z,29.08
2022-12-22T05:32:38.808Z,29.73
2022-12-22T05:35:07.404Z,26.98
2022-12-22T05:37:35.548Z,25.35
2022-12-22T05:40:03.639Z,27.90
2022-12-22T05:42:39.677Z,30.15
2022-12-22T05:45:12.303Z,41.78
2022-12-22T05:47:40.492Z,40.15
2022-12-22T05:50:09.404Z,37.63
2022-12-22T05:52:37.576Z,40.75
2022-12-22T05:55:06.423Z,39.40
2022-12-22T05:57:35.913Z,43.17
2022-12-22T06:00:05.144Z,43.88
2022-12-22T06:02:40.018Z,40.70
2022-12-22T06:05:08.929Z,41.50
2022-12-22T06:07:37.004Z,40.78
2022-12-22T06:10:11.572Z,41.60
2022-12-22T06:12:42.096Z,40.63
2022-12-22T06:15:11.977Z,42.83
2022-12-22T06:17:44.666Z,53.80
2022-12-22T06:20:14.088Z,55.45
2022-12-22T06:22:42.217Z,67.15
2022-12-22T06:25:15.611Z,72.15
2022-12-22T06:27:47.795Z,70.72
2022-12-22T06:30:16.269Z,70.93
2022-12-22T06:32:44.471Z,77.07
2022-12-22T06:35:12.539Z,71.55
2022-12-22T06:37:40.647Z,74.32
2022-12-22T06:40:10.109Z,74.05
2022-12-22T06:42:55.566Z,77.80
2022-12-22T06:45:25.119Z,79.85
2022-12-22T06:47:53.236Z,64.32
2022-12-22T06:50:21.262Z,64.55
2022-12-22T06:52:49.377Z,83.07
2022-12-22T06:55:17.583Z,79.00
2022-12-22T06:57:45.679Z,110.78
2022-12-22T07:00:14.413Z,85.90
2022-12-22T07:02:44.002Z,101.18
2022-12-22T07:05:12.196Z,109.15
2022-12-22T07:07:40.258Z,94.50
2022-12-22T07:10:09.363Z,124.90
2022-12-22T07:12:37.425Z,126.90
2022-12-22T07:15:06.100Z,235.50
2022-12-22T07:17:34.139Z,172.13
2022-12-22T07:20:03.768Z,192.98
2022-12-22T07:22:31.858Z,172.70
2022-12-22T07:25:00.511Z,146.90
2022-12-22T07:27:28.593Z,149.55
2022-12-22T07:29:56.799Z,184.05
2022-12-22T07:32:24.941Z,303.52
2022-12-22T07:34:53.059Z,273.35
2022-12-22T07:37:22.549Z,290.17
2022-12-22T07:39:50.682Z,250.65
2022-12-22T07:42:35.956Z,324.42
2022-12-22T07:45:04.504Z,222.50
2022-12-22T07:47:35.526Z,175.68
2022-12-22T07:50:21.108Z,152.65
2022-12-22T07:52:50.595Z,151.45
2022-12-22T07:55:18.741Z,137.48
2022-12-22T07:57:46.835Z,148.13
2022-12-22T08:00:16.217Z,150.50
2022-12-22T08:02:46.076Z,151.68
2022-12-22T08:05:14.373Z,140.05
2022-12-22T08:07:42.461Z,142.57
2022-12-22T08:10:12.707Z,130.38
2022-12-22T08:12:40.823Z,130.20
2022-12-22T08:15:09.924Z,137.60
2022-12-22T08:17:38.090Z,140.52
2022-12-22T08:20:07.437Z,132.00
2022-12-22T08:22:35.565Z,143.38
2022-12-22T08:25:03.857Z,137.77
2022-12-22T08:27:38.236Z,133.10
2022-12-22T08:30:07.401Z,138.07
2022-12-22T08:32:35.561Z,131.52
2022-12-22T08:35:04.013Z,132.13
2022-12-22T08:37:35.091Z,141.43
2022-12-22T08:40:03.927Z,151.07
2022-12-22T08:42:33.526Z,160.68
2022-12-22T08:45:01.668Z,148.82
2022-12-22T08:47:29.984Z,150.63
2022-12-22T08:49:58.137Z,150.82
2022-12-22T08:52:26.223Z,145.02
2022-12-22T08:54:54.385Z,145.07
2022-12-22T08:57:23.253Z,146.40
2022-12-22T08:59:52.880Z,147.55
2022-12-22T09:02:21.352Z,134.55
2022-12-22T09:04:49.671Z,137.80
2022-12-22T09:07:18.505Z,139.38
2022-12-22T09:09:50.215Z,141.65
2022-12-22T09:12:21.487Z,135.90
2022-12-22T09:14:50.306Z,142.35
2022-12-22T09:17:19.883Z,138.73
2022-12-22T09:19:48.040Z,132.65
2022-12-22T09:22:19.202Z,132.93
2022-12-22T09:24:50.013Z,126.85
2022-12-22T09:27:18.122Z,124.13
2022-12-22T09:29:46.279Z,130.45
2022-12-22T09:32:14.492Z,126.10
2022-12-22T09:34:47.748Z,125.47
2022-12-22T09:37:16.812Z,127.07
2022-12-22T09:39:44.843Z,125.63
2022-12-22T09:42:14.047Z,133.52
2022-12-22T09:44:44.919Z,132.00
2022-12-22T09:47:17.739Z,133.57
2022-12-22T09:49:47.217Z,125.63
2022-12-22T09:52:23.951Z,128.23
2022-12-22T09:54:52.069Z,122.28
2022-12-22T09:57:20.253Z,126.47
2022-12-22T09:59:48.314Z,122.82
2022-12-22T10:02:23.022Z,123.68
2022-12-22T10:05:00.391Z,126.90
2022-12-22T10:07:32.087Z,127.32
2022-12-22T10:10:00.470Z,128.77
2022-12-22T10:12:28.719Z,124.20
2022-12-22T10:14:56.887Z,133.73
2022-12-22T10:17:28.187Z,134.63
2022-12-22T10:20:09.542Z,129.98
2022-12-22T10:22:41.715Z,132.45
2022-12-22T10:25:24.015Z,132.23
2022-12-22T10:27:52.120Z,132.20
2022-12-22T10:30:22.007Z,129.18
2022-12-22T10:33:11.459Z,110.07
2022-12-22T10:35:49.205Z,105.97
2022-12-22T10:38:21.211Z,92.47
2022-12-22T10:40:54.082Z,80.78
2022-12-22T10:43:25.470Z,89.53
2022-12-22T10:45:53.605Z,92.20
2022-12-22T10:48:27.735Z,93.93
2022-12-22T10:50:57.270Z,83.35
2022-12-22T10:53:42.229Z,83.20
2022-12-22T10:56:12.905Z,85.88
2022-12-22T10:58:48.987Z,94.82
2022-12-22T11:01:24.655Z,90.45
2022-12-22T11:03:52.952Z,92.80
2022-12-22T11:06:22.369Z,92.30
2022-12-22T11:08:51.897Z,116.80
2022-12-22T11:11:28.616Z,110.70
2022-12-22T11:14:01.287Z,111.00
2022-12-22T11:16:31.270Z,114.40
2022-12-22T11:19:05.413Z,118.28
2022-12-22T11:21:37.915Z,119.78
2022-12-22T11:24:12.240Z,121.88
2022-12-22T11:26:43.906Z,132.38
2022-12-22T11:29:18.923Z,123.00
2022-12-22T11:31:54.410Z,126.28
2022-12-22T11:34:30.123Z,126.15
2022-12-22T11:37:05.278Z,122.85
2022-12-22T11:39:39.853Z,126.63
2022-12-22T11:42:16.763Z,123.38
2022-12-22T11:44:48.668Z,124.80
2022-12-22T11:47:22.000Z,128.63
2022-12-22T11:51:00.181Z,132.88
2022-12-22T11:52:59.695Z,136.23
2022-12-22T11:55:31.353Z,139.75
2022-12-22T11:58:06.091Z,132.30
2022-12-22T12:01:11.865Z,129.95
2022-12-22T12:03:44.021Z,135.02
2022-12-22T12:06:35.004Z,141.60
2022-12-22T12:09:15.544Z,127.90
2022-12-22T12:11:47.939Z,129.95
2022-12-22T12:14:20.004Z,128.70
2022-12-22T12:16:51.886Z,129.25
2022-12-22T12:19:43.093Z,127.82
2022-12-22T12:22:12.977Z,116.90
2022-12-22T12:24:47.486Z,120.30
2022-12-22T12:27:23.696Z,104.43
2022-12-22T12:30:06.463Z,81.65
2022-12-22T12:32:43.667Z,73.70
2022-12-22T12:35:23.160Z,78.18
2022-12-22T12:37:52.307Z,78.72
2022-12-22T12:40:30.004Z,76.38
2022-12-22T12:42:58.718Z,75.97
2022-12-22T12:45:37.639Z,80.93
2022-12-22T12:48:43.540Z,74.05
2022-12-22T12:51:49.581Z,74.65
2022-12-22T12:54:39.611Z,75.38
2022-12-22T12:57:29.012Z,74.70
2022-12-22T12:59:57.621Z,73.88
2022-12-22T13:02:37.150Z,75.00
2022-12-22T13:05:33.033Z,76.47
2022-12-22T13:08:18.236Z,76.45
2022-12-22T13:10:51.294Z,76.68
2022-12-22T13:13:46.033Z,86.88
2022-12-22T13:16:38.472Z,97.38
2022-12-22T13:19:21.298Z,117.45
2022-12-22T13:21:54.461Z,130.43
2022-12-22T13:24:29.020Z,138.20
2022-12-22T13:27:01.800Z,132.45
2022-12-22T13:29:38.295Z,130.52
2022-12-22T13:32:17.156Z,127.68
2022-12-22T13:35:20.690Z,120.25
2022-12-22T13:37:40.635Z,120.32
2022-12-22T13:40:11.557Z,115.90
2022-12-22T13:42:40.708Z,116.93
2022-12-22T13:45:14.335Z,116.53
2022-12-22T13:47:42.999Z,114.85
2022-12-22T13:50:21.111Z,108.65
2022-12-22T13:52:49.443Z,106.78
2022-12-22T13:55:17.797Z,107.32
2022-12-22T13:57:45.939Z,103.65
2022-12-22T14:00:21.718Z,105.30
2022-12-22T14:02:50.335Z,104.82
2022-12-22T14:05:18.724Z,86.95
2022-12-22T14:08:05.233Z,89.00
2022-12-22T14:10:38.244Z,87.97
2022-12-22T14:13:08.170Z,80.72
2022-12-22T14:15:37.724Z,82.65
2022-12-22T14:18:06.686Z,87.93
2022-12-22T14:20:36.415Z,99.80
2022-12-22T14:23:07.576Z,86.07
2022-12-22T14:25:37.061Z,100.93
2022-12-22T14:28:06.172Z,115.95
2022-12-22T14:30:38.747Z,113.13
2022-12-22T14:33:18.793Z,111.15
2022-12-22T14:35:47.060Z,104.78
2022-12-22T14:38:23.441Z,109.28
2022-12-22T14:40:56.889Z,105.63
2022-12-22T14:43:30.323Z,97.82
2022-12-22T14:46:07.856Z,96.55
2022-12-22T14:48:38.057Z,97.03
2022-12-22T14:51:06.266Z,94.22
2022-12-22T14:53:39.166Z,95.82
2022-12-22T14:56:12.047Z,89.85
2022-12-22T14:58:41.344Z,85.80
2022-12-22T15:01:19.949Z,86.18
2022-12-22T15:03:59.576Z,87.47
2022-12-22T15:06:36.050Z,83.03
2022-12-22T15:10:12.950Z,84.38
2022-12-22T15:12:16.390Z,77.82
2022-12-22T15:14:47.746Z,72.93
2022-12-22T15:17:21.514Z,78.15
2022-12-22T15:19:49.734Z,76.43
2022-12-22T15:22:17.777Z,85.68
2022-12-22T15:24:47.141Z,86.72
2022-12-22T15:27:15.288Z,74.85
2022-12-22T15:29:43.362Z,82.13
2022-12-22T15:32:12.769Z,66.30
2022-12-22T15:34:42.200Z,68.47
2022-12-22T15:37:12.700Z,64.95
2022-12-22T15:39:40.910Z,68.30
2022-12-22T15:42:12.653Z,62.83
2022-12-22T15:44:40.786Z,63.08
2022-12-22T15:47:09.625Z,64.82
2022-12-22T15:49:37.732Z,63.45
2022-12-22T15:52:07.370Z,59.00
2022-12-22T15:54:35.471Z,60.05
2022-12-22T15:57:03.589Z,60.53
2022-12-22T15:59:33.078Z,62.60
2022-12-22T16:02:02.348Z,59.53
2022-12-22T16:04:30.663Z,59.83
2022-12-22T16:06:59.889Z,63.17
2022-12-22T16:09:32.633Z,63.08
2022-12-22T16:12:00.812Z,56.28
2022-12-22T16:14:32.440Z,57.97
2022-12-22T16:17:03.448Z,55.53
2022-12-22T16:19:31.689Z,57.50
2022-12-22T16:21:59.854Z,56.58
2022-12-22T16:24:30.640Z,55.55
2022-12-22T16:26:58.766Z,56.90
2022-12-22T16:29:26.914Z,51.17
2022-12-22T16:31:55.197Z,53.92
2022-12-22T16:34:23.395Z,54.00
2022-12-22T16:36:51.457Z,52.38
2022-12-22T16:39:19.556Z,55.97
2022-12-22T16:41:59.981Z,51.78
2022-12-22T16:47:18.217Z,56.67
2022-12-22T16:49:47.314Z,53.03
2022-12-22T16:52:19.455Z,54.50
2022-12-22T16:54:52.394Z,53.45
2022-12-22T16:57:22.314Z,56.38
2022-12-22T16:59:50.452Z,59.90
2022-12-22T17:02:22.565Z,56.20
2022-12-22T17:04:51.045Z,60.00
2022-12-22T17:07:19.149Z,58.33
2022-12-22T17:09:49.171Z,66.55
2022-12-22T17:12:18.112Z,67.53
2022-12-22T17:14:47.613Z,70.15
2022-12-22T17:17:17.639Z,70.30
2022-12-22T17:19:45.806Z,71.63
2022-12-22T17:22:22.516Z,67.30
2022-12-22T17:24:51.131Z,67.03
2022-12-22T17:27:20.453Z,65.53
2022-12-22T17:29:49.947Z,67.13
2022-12-22T17:32:18.076Z,68.65
2022-12-22T17:34:46.416Z,67.35
2022-12-22T17:37:14.877Z,63.97
2022-12-22T17:39:43.315Z,68.13
2022-12-22T17:42:19.645Z,66.43
2022-12-22T17:44:49.407Z,66.25
2022-12-22T17:47:18.753Z,62.97
2022-12-22T17:49:46.806Z,63.08
2022-12-22T17:52:18.648Z,60.55
2022-12-22T17:54:47.216Z,65.35
2022-12-22T17:57:17.079Z,65.22
2022-12-22T17:59:45.146Z,64.05
2022-12-22T18:02:18.595Z,66.40
2022-12-22T18:04:46.936Z,60.35
2022-12-22T18:07:21.004Z,61.13
2022-12-22T18:09:49.222Z,66.93
2022-12-22T18:12:18.885Z,101.95
2022-12-22T18:14:47.363Z,91.93
2022-12-22T18:17:29.980Z,93.10
2022-12-22T18:20:03.204Z,88.55
2022-12-22T18:22:31.408Z,87.13
2022-12-22T18:24:59.564Z,91.15
2022-12-22T18:27:28.633Z,91.90
2022-12-22T18:29:56.760Z,89.45
2022-12-22T18:32:28.064Z,93.45
2022-12-22T18:34:56.328Z,87.00
2022-12-22T18:37:24.404Z,87.00
2022-12-22T18:39:52.550Z,100.68
2022-12-22T18:42:22.136Z,89.63
2022-12-22T18:44:50.310Z,86.55
2022-12-22T18:47:18.735Z,84.68
2022-12-22T18:49:48.446Z,84.47
2022-12-22T18:52:18.005Z,86.35
2022-12-22T18:54:46.135Z,84.57
2022-12-22T18:57:15.252Z,84.32
2022-12-22T18:59:43.500Z,86.07
2022-12-22T19:02:20.685Z,104.43
2022-12-22T19:04:50.368Z,122.35
2022-12-22T19:07:19.295Z,124.40
2022-12-22T19:09:47.419Z,140.70
2022-12-22T19:12:16.594Z,131.63
2022-12-22T19:14:47.080Z,143.25
2022-12-22T19:17:15.698Z,144.38
2022-12-22T19:19:43.770Z,153.30
2022-12-22T19:22:14.548Z,172.32
2022-12-22T19:24:44.798Z,181.90
2022-12-22T19:27:14.431Z,181.85
2022-12-22T19:29:42.468Z,196.50
2022-12-22T19:32:13.354Z,197.93
2022-12-22T19:34:41.561Z,239.50
2022-12-22T19:37:09.963Z,239.30
2022-12-22T19:39:39.479Z,226.70
2022-12-22T19:42:07.600Z,222.43
2022-12-22T19:44:35.729Z,247.23
2022-12-22T19:47:03.842Z,241.93
2022-12-22T19:49:31.976Z,247.38
2022-12-22T19:52:00.177Z,248.35
2022-12-22T19:54:28.725Z,243.77
2022-12-22T19:56:58.268Z,233.73
2022-12-22T19:59:32.341Z,241.77
2022-12-22T20:02:02.500Z,235.52
2022-12-22T20:04:30.796Z,233.73
2022-12-22T20:06:58.962Z,228.50
2022-12-22T20:09:27.074Z,232.98
2022-12-22T20:11:55.191Z,228.48
2022-12-22T20:14:24.683Z,223.65
2022-12-22T20:16:52.841Z,226.20
2022-12-22T20:19:21.010Z,229.63
2022-12-22T20:21:49.140Z,216.93
2022-12-22T20:24:21.103Z,218.32
2022-12-22T20:26:54.161Z,219.88
2022-12-22T20:29:25.635Z,218.70
2022-12-22T20:31:53.797Z,210.02
2022-12-22T20:34:21.971Z,207.07
2022-12-22T20:36:50.131Z,205.98
2022-12-22T20:39:20.636Z,202.23
2022-12-22T20:41:53.437Z,200.45
2022-12-22T20:44:24.515Z,194.27
2022-12-22T20:46:52.749Z,196.13
2022-12-22T20:49:20.841Z,191.02
2022-12-22T20:51:48.901Z,184.65
2022-12-22T20:54:17.062Z,194.32
2022-12-22T20:56:45.377Z,170.45
2022-12-22T20:59:16.136Z,163.32
2022-12-22T21:01:45.923Z,166.75
2022-12-22T21:04:15.054Z,167.02
2022-12-22T21:06:45.952Z,167.55
2022-12-22T21:09:14.131Z,161.68
2022-12-22T21:11:42.364Z,164.30
2022-12-22T21:14:10.682Z,164.25
2022-12-22T21:16:38.778Z,164.82
2022-12-22T21:19:08.343Z,156.90
2022-12-22T21:21:36.567Z,160.25
2022-12-22T21:24:05.643Z,156.57
2022-12-22T21:26:34.999Z,148.98
2022-12-22T21:29:03.834Z,148.10
2022-12-22T21:31:31.937Z,151.43
2022-12-22T21:34:00.048Z,146.50
2022-12-22T21:36:30.731Z,147.75
2022-12-22T21:38:59.569Z,151.75
2022-12-22T21:41:41.762Z,147.80
2022-12-22T21:44:12.414Z,146.60
2022-12-22T21:46:40.893Z,142.45
2022-12-22T21:49:10.129Z,147.77
2022-12-22T21:51:41.031Z,140.23
2022-12-22T21:54:09.172Z,140.10
2022-12-22T21:56:37.279Z,141.82
2022-12-22T21:59:05.449Z,137.48
2022-12-22T22:01:33.670Z,135.25
2022-12-22T22:04:01.868Z,136.45
2022-12-22T22:06:29.956Z,135.45
2022-12-22T22:08:59.480Z,132.60
2022-12-22T22:11:27.667Z,132.13
2022-12-22T22:13:55.790Z,132.55
2022-12-22T22:16:23.920Z,126.07
2022-12-22T22:18:52.131Z,130.55
2022-12-22T22:21:20.203Z,126.03
2022-12-22T22:23:48.369Z,132.50
2022-12-22T22:26:17.795Z,125.90
2022-12-22T22:28:47.185Z,124.68
2022-12-22T22:31:15.513Z,123.32
2022-12-22T22:33:43.606Z,124.60
2022-12-22T22:36:11.750Z,121.00
2022-12-22T22:38:39.824Z,121.32
2022-12-22T22:41:07.970Z,117.70
2022-12-22T22:43:37.473Z,115.22
2022-12-22T22:46:06.493Z,111.57
2022-12-22T22:48:34.623Z,113.57
2022-12-22T22:51:02.750Z,109.65
2022-12-22T22:53:31.224Z,114.75
2022-12-22T22:56:02.931Z,109.70
2022-12-22T22:58:31.047Z,109.60
2022-12-22T23:01:06.670Z,100.68
2022-12-22T23:03:34.863Z,106.57
2022-12-22T23:06:03.487Z,98.97
2022-12-22T23:08:31.693Z,99.85
2022-12-22T23:10:59.730Z,95.53
2022-12-22T23:13:27.852Z,94.18
2022-12-22T23:15:56.655Z,94.40
2022-12-22T23:18:26.321Z,94.63
2022-12-22T23:20:54.408Z,93.40
2022-12-22T23:23:22.536Z,91.00
2022-12-22T23:25:51.643Z,90.40
2022-12-22T23:28:19.894Z,90.40
2022-12-22T23:30:49.934Z,92.25
2022-12-22T23:33:18.056Z,86.50
2022-12-22T23:35:48.933Z,91.82
2022-12-22T23:38:17.378Z,89.88
2022-12-22T23:40:54.462Z,84.32
2022-12-22T23:43:23.072Z,87.18
2022-12-22T23:45:51.201Z,86.18
2022-12-22T23:48:19.281Z,80.25
2022-12-22T23:50:48.707Z,78.82
2022-12-22T23:53:16.854Z,75.95
2022-12-22T23:55:45.097Z,78.68
2022-12-22T23:58:13.201Z,75.68
